sensor_id;sensor_type;location;lat;lon;timestamp;P1;durP1;ratioP1;P2;durP2;ratioP2
50064;SDS011;35951;47.848;-122.338;2022-08-01T00:00:40;1.75;;;0.20;;
50064;SDS011;35951;47.848;-122.338;2022-08-01T00:03:14;0.50;;;0.20;;
50064;SDS011;35951;47.848;-122.338;2022-08-01T00:05:42;0.90;;;0.20;;
50064;SDS011;35951;47.848;-122.338;2022-08-01T00:08:11;0.75;;;0.20;;
50064;SDS011;35951;47.848;-122.338;2022-08-01T00:10:42;0.75;;;0.20;;
50064;SDS011;35951;47.848;-122.338;2022-08-01T00:13:09;0.93;;;0.20;;
50064;SDS011;35951;47.848;-122.338;2022-08-01T00:18:05;3.17;;;0.20;;
50064;SDS011;35951;47.848;-122.338;2022-08-01T00:20:33;0.72;;;0.20;;
50064;SDS011;35951;47.848;-122.338;2022-08-01T00:25:31;1.42;;;0.30;;
50064;SDS011;35951;47.848;-122.338;2022-08-01T00:28:02;1.10;;;0.25;;
50064;SDS011;35951;47.848;-122.338;2022-08-01T00:30:32;2.77;;;0.20;;
50064;SDS011;35951;47.848;-122.338;2022-08-01T00:32:59;0.75;;;0.20;;
50064;SDS011;35951;47.848;-122.338;2022-08-01T00:35:30;4.28;;;0.20;;
50064;SDS011;35951;47.848;-122.338;2022-08-01T00:37:58;0.80;;;0.20;;
50064;SDS011;35951;47.848;-122.338;2022-08-01T00:40:26;3.42;;;0.20;;
50064;SDS011;35951;47.848;-122.338;2022-08-01T00:42:53;0.73;;;0.20;;
50064;SDS011;35951;47.848;-122.338;2022-08-01T00:45:21;0.78;;;0.28;;
50064;SDS011;35951;47.848;-122.338;2022-08-01T00:47:49;1.00;;;0.20;;
50064;SDS011;35951;47.848;-122.338;2022-08-01T00:50:17;0.95;;;0.20;;
50064;SDS011;35951;47.848;-122.338;2022-08-01T00:52:46;0.50;;;0.20;;
50064;SDS011;35951;47.848;-122.338;2022-08-01T00:55:14;0.78;;;0.20;;
50064;SDS011;35951;47.848;-122.338;2022-08-01T00:57:44;0.53;;;0.20;;
50064;SDS011;35951;47.848;-122.338;2022-08-01T01:00:15;2.17;;;0.25;;
50064;SDS011;35951;47.848;-122.338;2022-08-01T01:02:43;0.75;;;0.20;;
50064;SDS011;35951;47.848;-122.338;2022-08-01T01:05:11;0.85;;;0.30;;
50064;SDS011;35951;47.848;-122.338;2022-08-01T01:13:22;1.05;;;0.20;;
50064;SDS011;35951;47.848;-122.338;2022-08-01T01:15:51;3.05;;;0.20;;
50064;SDS011;35951;47.848;-122.338;2022-08-01T01:18:32;0.62;;;0.25;;
50064;SDS011;35951;47.848;-122.338;2022-08-01T01:35:10;0.65;;;0.20;;
50064;SDS011;35951;47.848;-122.338;2022-08-01T01:37:37;2.55;;;0.30;;
50064;SDS011;35951;47.848;-122.338;2022-08-01T01:40:08;3.02;;;0.30;;
50064;SDS011;35951;47.848;-122.338;2022-08-01T01:42:38;2.35;;;0.25;;
50064;SDS011;35951;47.848;-122.338;2022-08-01T01:45:08;3.33;;;0.30;;
50064;SDS011;35951;47.848;-122.338;2022-08-01T01:47:37;1.27;;;0.40;;
50064;SDS011;35951;47.848;-122.338;2022-08-01T01:50:07;1.30;;;0.30;;
50064;SDS011;35951;47.848;-122.338;2022-08-01T01:52:38;2.08;;;0.40;;
50064;SDS011;35951;47.848;-122.338;2022-08-01T01:55:08;1.98;;;0.30;;
50064;SDS011;35951;47.848;-122.338;2022-08-01T01:57:38;1.32;;;0.40;;
50064;SDS011;35951;47.848;-122.338;2022-08-01T02:00:08;1.90;;;0.30;;
50064;SDS011;35951;47.848;-122.338;2022-08-01T02:02:38;2.02;;;0.40;;
50064;SDS011;35951;47.848;-122.338;2022-08-01T02:05:08;5.90;;;0.50;;
50064;SDS011;35951;47.848;-122.338;2022-08-01T02:07:37;2.87;;;0.30;;
50064;SDS011;35951;47.848;-122.338;2022-08-01T02:10:06;1.47;;;0.30;;
50064;SDS011;35951;47.848;-122.338;2022-08-01T02:12:36;0.60;;;0.20;;
50064;SDS011;35951;47.848;-122.338;2022-08-01T02:15:07;2.60;;;0.30;;
50064;SDS011;35951;47.848;-122.338;2022-08-01T02:17:37;0.80;;;0.20;;
50064;SDS011;35951;47.848;-122.338;2022-08-01T02:20:13;0.80;;;0.20;;
50064;SDS011;35951;47.848;-122.338;2022-08-01T02:22:50;1.57;;;0.30;;
50064;SDS011;35951;47.848;-122.338;2022-08-01T02:25:22;4.22;;;0.30;;
50064;SDS011;35951;47.848;-122.338;2022-08-01T02:30:40;0.80;;;0.20;;
50064;SDS011;35951;47.848;-122.338;2022-08-01T02:33:18;1.45;;;0.23;;
50064;SDS011;35951;47.848;-122.338;2022-08-01T02:35:49;1.25;;;0.30;;
50064;SDS011;35951;47.848;-122.338;2022-08-01T02:38:20;2.37;;;0.30;;
50064;SDS011;35951;47.848;-122.338;2022-08-01T02:40:51;3.12;;;0.23;;
50064;SDS011;35951;47.848;-122.338;2022-08-01T02:43:23;2.27;;;0.30;;
50064;SDS011;35951;47.848;-122.338;2022-08-01T02:45:56;1.47;;;0.30;;
50064;SDS011;35951;47.848;-122.338;2022-08-01T02:48:26;2.42;;;0.30;;
50064;SDS011;35951;47.848;-122.338;2022-08-01T02:50:58;1.75;;;0.20;;
50064;SDS011;35951;47.848;-122.338;2022-08-01T02:53:27;1.40;;;0.30;;
50064;SDS011;35951;47.848;-122.338;2022-08-01T02:56:01;1.35;;;0.20;;
50064;SDS011;35951;47.848;-122.338;2022-08-01T02:58:31;1.20;;;0.30;;
50064;SDS011;35951;47.848;-122.338;2022-08-01T03:01:01;4.22;;;0.20;;
50064;SDS011;35951;47.848;-122.338;2022-08-01T03:03:31;2.05;;;0.20;;
50064;SDS011;35951;47.848;-122.338;2022-08-01T03:06:00;1.05;;;0.30;;
50064;SDS011;35951;47.848;-122.338;2022-08-01T03:08:29;1.22;;;0.30;;
50064;SDS011;35951;47.848;-122.338;2022-08-01T03:10:59;1.12;;;0.20;;
50064;SDS011;35951;47.848;-122.338;2022-08-01T03:13:28;2.42;;;0.30;;
50064;SDS011;35951;47.848;-122.338;2022-08-01T03:15:58;2.42;;;0.20;;
50064;SDS011;35951;47.848;-122.338;2022-08-01T03:18:28;1.05;;;0.20;;
50064;SDS011;35951;47.848;-122.338;2022-08-01T03:20:57;0.60;;;0.23;;
50064;SDS011;35951;47.848;-122.338;2022-08-01T03:23:27;1.82;;;0.30;;
50064;SDS011;35951;47.848;-122.338;2022-08-01T03:25:56;1.85;;;0.23;;
50064;SDS011;35951;47.848;-122.338;2022-08-01T03:28:25;0.88;;;0.30;;
50064;SDS011;35951;47.848;-122.338;2022-08-01T03:30:54;3.50;;;0.20;;
50064;SDS011;35951;47.848;-122.338;2022-08-01T03:33:23;1.22;;;0.20;;
50064;SDS011;35951;47.848;-122.338;2022-08-01T03:35:52;1.00;;;0.30;;
50064;SDS011;35951;47.848;-122.338;2022-08-01T03:38:22;0.98;;;0.20;;
50064;SDS011;35951;47.848;-122.338;2022-08-01T03:41:04;1.17;;;0.20;;
50064;SDS011;35951;47.848;-122.338;2022-08-01T03:43:40;2.42;;;0.30;;
50064;SDS011;35951;47.848;-122.338;2022-08-01T03:46:11;4.28;;;0.30;;
50064;SDS011;35951;47.848;-122.338;2022-08-01T03:48:43;5.35;;;0.40;;
50064;SDS011;35951;47.848;-122.338;2022-08-01T03:51:14;0.80;;;0.20;;
50064;SDS011;35951;47.848;-122.338;2022-08-01T03:53:52;2.08;;;0.20;;
50064;SDS011;35951;47.848;-122.338;2022-08-01T03:56:22;1.87;;;0.30;;
50064;SDS011;35951;47.848;-122.338;2022-08-01T03:58:51;2.15;;;0.30;;
50064;SDS011;35951;47.848;-122.338;2022-08-01T04:01:20;3.40;;;0.30;;
50064;SDS011;35951;47.848;-122.338;2022-08-01T04:03:50;0.80;;;0.28;;
50064;SDS011;35951;47.848;-122.338;2022-08-01T04:06:19;5.17;;;0.20;;
50064;SDS011;35951;47.848;-122.338;2022-08-01T04:08:47;1.85;;;0.20;;
50064;SDS011;35951;47.848;-122.338;2022-08-01T04:11:17;1.98;;;0.30;;
50064;SDS011;35951;47.848;-122.338;2022-08-01T04:13:45;1.47;;;0.30;;
50064;SDS011;35951;47.848;-122.338;2022-08-01T04:16:12;1.05;;;0.35;;
50064;SDS011;35951;47.848;-122.338;2022-08-01T04:18:40;0.60;;;0.30;;
50064;SDS011;35951;47.848;-122.338;2022-08-01T04:21:08;3.37;;;0.30;;
50064;SDS011;35951;47.848;-122.338;2022-08-01T04:23:37;4.10;;;0.40;;
50064;SDS011;35951;47.848;-122.338;2022-08-01T04:26:07;0.93;;;0.30;;
50064;SDS011;35951;47.848;-122.338;2022-08-01T04:28:37;1.72;;;0.30;;
50064;SDS011;35951;47.848;-122.338;2022-08-01T04:31:08;2.47;;;0.30;;
50064;SDS011;35951;47.848;-122.338;2022-08-01T04:33:38;3.83;;;0.30;;
50064;SDS011;35951;47.848;-122.338;2022-08-01T04:36:10;2.60;;;0.30;;
50064;SDS011;35951;47.848;-122.338;2022-08-01T04:38:40;2.20;;;0.30;;
50064;SDS011;35951;47.848;-122.338;2022-08-01T04:41:17;0.45;;;0.20;;
50064;SDS011;35951;47.848;-122.338;2022-08-01T04:46:30;0.85;;;0.25;;
50064;SDS011;35951;47.848;-122.338;2022-08-01T04:49:20;0.47;;;0.20;;
50064;SDS011;35951;47.848;-122.338;2022-08-01T04:51:54;2.35;;;0.20;;
50064;SDS011;35951;47.848;-122.338;2022-08-01T04:54:35;0.53;;;0.20;;
50064;SDS011;35951;47.848;-122.338;2022-08-01T04:57:12;1.35;;;0.20;;
50064;SDS011;35951;47.848;-122.338;2022-08-01T04:59:42;3.40;;;0.20;;
50064;SDS011;35951;47.848;-122.338;2022-08-01T05:02:16;3.95;;;0.20;;
50064;SDS011;35951;47.848;-122.338;2022-08-01T05:04:48;4.53;;;0.30;;
50064;SDS011;35951;47.848;-122.338;2022-08-01T05:07:36;1.98;;;0.20;;
50064;SDS011;35951;47.848;-122.338;2022-08-01T05:13:18;1.00;;;0.20;;
50064;SDS011;35951;47.848;-122.338;2022-08-01T05:15:50;0.72;;;0.30;;
50064;SDS011;35951;47.848;-122.338;2022-08-01T05:21:09;1.32;;;0.20;;
50064;SDS011;35951;47.848;-122.338;2022-08-01T05:23:43;1.25;;;0.20;;
50064;SDS011;35951;47.848;-122.338;2022-08-01T05:26:20;0.55;;;0.20;;
50064;SDS011;35951;47.848;-122.338;2022-08-01T05:32:05;2.27;;;0.30;;
50064;SDS011;35951;47.848;-122.338;2022-08-01T05:34:42;2.15;;;0.23;;
50064;SDS011;35951;47.848;-122.338;2022-08-01T05:37:15;0.53;;;0.20;;
50064;SDS011;35951;47.848;-122.338;2022-08-01T05:39:57;2.00;;;0.20;;
50064;SDS011;35951;47.848;-122.338;2022-08-01T05:42:26;0.70;;;0.30;;
50064;SDS011;35951;47.848;-122.338;2022-08-01T05:45:08;3.72;;;0.50;;
50064;SDS011;35951;47.848;-122.338;2022-08-01T05:47:39;2.27;;;0.30;;
50064;SDS011;35951;47.848;-122.338;2022-08-01T05:50:18;0.80;;;0.30;;
50064;SDS011;35951;47.848;-122.338;2022-08-01T05:52:49;1.87;;;0.20;;
50064;SDS011;35951;47.848;-122.338;2022-08-01T05:55:37;1.05;;;0.30;;
50064;SDS011;35951;47.848;-122.338;2022-08-01T06:03:26;6.40;;;0.20;;
50064;SDS011;35951;47.848;-122.338;2022-08-01T06:06:02;5.05;;;0.28;;
50064;SDS011;35951;47.848;-122.338;2022-08-01T06:08:34;0.80;;;0.30;;
50064;SDS011;35951;47.848;-122.338;2022-08-01T06:13:30;0.40;;;0.20;;
50064;SDS011;35951;47.848;-122.338;2022-08-01T06:15:57;1.05;;;0.20;;
50064;SDS011;35951;47.848;-122.338;2022-08-01T06:18:25;0.93;;;0.30;;
50064;SDS011;35951;47.848;-122.338;2022-08-01T06:20:52;1.22;;;0.20;;
50064;SDS011;35951;47.848;-122.338;2022-08-01T06:23:20;0.55;;;0.20;;
50064;SDS011;35951;47.848;-122.338;2022-08-01T06:25:51;5.17;;;0.23;;
50064;SDS011;35951;47.848;-122.338;2022-08-01T06:28:20;2.50;;;0.30;;
50064;SDS011;35951;47.848;-122.338;2022-08-01T06:30:48;2.33;;;0.20;;
50064;SDS011;35951;47.848;-122.338;2022-08-01T06:33:16;3.45;;;0.30;;
50064;SDS011;35951;47.848;-122.338;2022-08-01T06:35:45;1.27;;;0.20;;
50064;SDS011;35951;47.848;-122.338;2022-08-01T06:38:13;1.02;;;0.30;;
50064;SDS011;35951;47.848;-122.338;2022-08-01T06:40:41;0.75;;;0.30;;
50064;SDS011;35951;47.848;-122.338;2022-08-01T06:43:12;0.55;;;0.20;;
50064;SDS011;35951;47.848;-122.338;2022-08-01T06:45:40;0.60;;;0.20;;
50064;SDS011;35951;47.848;-122.338;2022-08-01T06:48:09;0.45;;;0.20;;
50064;SDS011;35951;47.848;-122.338;2022-08-01T06:50:37;0.60;;;0.30;;
50064;SDS011;35951;47.848;-122.338;2022-08-01T06:53:05;1.32;;;0.30;;
50064;SDS011;35951;47.848;-122.338;2022-08-01T06:55:33;0.60;;;0.20;;
50064;SDS011;35951;47.848;-122.338;2022-08-01T06:58:01;1.12;;;0.20;;
50064;SDS011;35951;47.848;-122.338;2022-08-01T07:00:30;0.95;;;0.20;;
50064;SDS011;35951;47.848;-122.338;2022-08-01T07:02:58;4.80;;;0.20;;
50064;SDS011;35951;47.848;-122.338;2022-08-01T07:05:27;0.80;;;0.20;;
50064;SDS011;35951;47.848;-122.338;2022-08-01T07:07:56;0.40;;;0.20;;
50064;SDS011;35951;47.848;-122.338;2022-08-01T07:10:24;0.85;;;0.20;;
50064;SDS011;35951;47.848;-122.338;2022-08-01T07:12:51;0.88;;;0.30;;
50064;SDS011;35951;47.848;-122.338;2022-08-01T07:15:19;0.78;;;0.20;;
50064;SDS011;35951;47.848;-122.338;2022-08-01T07:17:48;1.90;;;0.20;;
50064;SDS011;35951;47.848;-122.338;2022-08-01T07:20:16;0.30;;;0.20;;
50064;SDS011;35951;47.848;-122.338;2022-08-01T07:22:43;2.50;;;0.23;;
50064;SDS011;35951;47.848;-122.338;2022-08-01T07:25:11;1.57;;;0.20;;
50064;SDS011;35951;47.848;-122.338;2022-08-01T07:27:39;2.00;;;0.30;;
50064;SDS011;35951;47.848;-122.338;2022-08-01T07:30:07;2.45;;;0.30;;
50064;SDS011;35951;47.848;-122.338;2022-08-01T07:32:35;0.98;;;0.30;;
50064;SDS011;35951;47.848;-122.338;2022-08-01T07:35:03;0.70;;;0.20;;
50064;SDS011;35951;47.848;-122.338;2022-08-01T07:37:32;0.90;;;0.30;;
50064;SDS011;35951;47.848;-122.338;2022-08-01T07:40:00;0.55;;;0.20;;
50064;SDS011;35951;47.848;-122.338;2022-08-01T07:42:29;3.65;;;0.30;;
50064;SDS011;35951;47.848;-122.338;2022-08-01T07:44:57;0.83;;;0.30;;
50064;SDS011;35951;47.848;-122.338;2022-08-01T07:47:26;2.70;;;0.30;;
50064;SDS011;35951;47.848;-122.338;2022-08-01T07:50:03;0.70;;;0.30;;
50064;SDS011;35951;47.848;-122.338;2022-08-01T07:52:26;2.30;;;0.30;;
50064;SDS011;35951;47.848;-122.338;2022-08-01T07:54:55;1.57;;;0.20;;
50064;SDS011;35951;47.848;-122.338;2022-08-01T07:57:24;1.30;;;0.30;;
50064;SDS011;35951;47.848;-122.338;2022-08-01T07:59:52;1.22;;;0.20;;
50064;SDS011;35951;47.848;-122.338;2022-08-01T08:02:20;0.42;;;0.20;;
50064;SDS011;35951;47.848;-122.338;2022-08-01T08:04:48;1.07;;;0.37;;
50064;SDS011;35951;47.848;-122.338;2022-08-01T08:07:17;2.77;;;0.30;;
50064;SDS011;35951;47.848;-122.338;2022-08-01T08:09:45;1.57;;;0.20;;
50064;SDS011;35951;47.848;-122.338;2022-08-01T08:12:13;1.65;;;0.20;;
50064;SDS011;35951;47.848;-122.338;2022-08-01T08:14:41;2.25;;;0.20;;
50064;SDS011;35951;47.848;-122.338;2022-08-01T08:17:09;3.65;;;0.20;;
50064;SDS011;35951;47.848;-122.338;2022-08-01T08:19:37;0.42;;;0.20;;
50064;SDS011;35951;47.848;-122.338;2022-08-01T08:22:08;0.53;;;0.10;;
50064;SDS011;35951;47.848;-122.338;2022-08-01T08:24:36;0.53;;;0.20;;
50064;SDS011;35951;47.848;-122.338;2022-08-01T08:27:04;2.65;;;0.20;;
50064;SDS011;35951;47.848;-122.338;2022-08-01T08:32:00;1.17;;;0.10;;
50064;SDS011;35951;47.848;-122.338;2022-08-01T08:34:28;0.50;;;0.10;;
50064;SDS011;35951;47.848;-122.338;2022-08-01T08:36:55;0.85;;;0.15;;
50064;SDS011;35951;47.848;-122.338;2022-08-01T08:39:23;0.88;;;0.17;;
50064;SDS011;35951;47.848;-122.338;2022-08-01T08:41:51;0.60;;;0.10;;
50064;SDS011;35951;47.848;-122.338;2022-08-01T08:44:18;0.65;;;0.10;;
50064;SDS011;35951;47.848;-122.338;2022-08-01T08:46:50;1.92;;;0.13;;
50064;SDS011;35951;47.848;-122.338;2022-08-01T08:49:21;4.20;;;0.20;;
50064;SDS011;35951;47.848;-122.338;2022-08-01T08:51:51;1.50;;;0.15;;
50064;SDS011;35951;47.848;-122.338;2022-08-01T08:54:21;0.98;;;0.20;;
50064;SDS011;35951;47.848;-122.338;2022-08-01T08:56:50;0.70;;;0.17;;
50064;SDS011;35951;47.848;-122.338;2022-08-01T08:59:19;0.78;;;0.10;;
50064;SDS011;35951;47.848;-122.338;2022-08-01T09:01:50;5.03;;;0.20;;
50064;SDS011;35951;47.848;-122.338;2022-08-01T09:04:18;1.65;;;0.15;;
50064;SDS011;35951;47.848;-122.338;2022-08-01T09:06:48;0.78;;;0.10;;
50064;SDS011;35951;47.848;-122.338;2022-08-01T09:09:16;0.50;;;0.10;;
50064;SDS011;35951;47.848;-122.338;2022-08-01T09:11:44;0.30;;;0.10;;
50064;SDS011;35951;47.848;-122.338;2022-08-01T09:14:13;1.50;;;0.10;;
50064;SDS011;35951;47.848;-122.338;2022-08-01T09:16:45;1.40;;;0.20;;
50064;SDS011;35951;47.848;-122.338;2022-08-01T09:19:13;0.80;;;0.10;;
50064;SDS011;35951;47.848;-122.338;2022-08-01T09:21:56;0.82;;;0.17;;
50064;SDS011;35951;47.848;-122.338;2022-08-01T09:24:26;2.30;;;0.10;;
50064;SDS011;35951;47.848;-122.338;2022-08-01T09:26:55;0.65;;;0.10;;
50064;SDS011;35951;47.848;-122.338;2022-08-01T09:29:26;0.65;;;0.10;;
50064;SDS011;35951;47.848;-122.338;2022-08-01T09:31:58;0.93;;;0.10;;
50064;SDS011;35951;47.848;-122.338;2022-08-01T09:34:29;0.60;;;0.10;;
50064;SDS011;35951;47.848;-122.338;2022-08-01T09:37:01;0.37;;;0.10;;
50064;SDS011;35951;47.848;-122.338;2022-08-01T09:39:32;1.37;;;0.17;;
50064;SDS011;35951;47.848;-122.338;2022-08-01T09:42:23;0.60;;;0.10;;
50064;SDS011;35951;47.848;-122.338;2022-08-01T09:44:54;1.80;;;0.20;;
50064;SDS011;35951;47.848;-122.338;2022-08-01T09:47:22;2.50;;;0.13;;
50064;SDS011;35951;47.848;-122.338;2022-08-01T09:49:55;3.00;;;0.20;;
50064;SDS011;35951;47.848;-122.338;2022-08-01T09:52:25;2.42;;;0.15;;
50064;SDS011;35951;47.848;-122.338;2022-08-01T09:57:23;0.60;;;0.10;;
50064;SDS011;35951;47.848;-122.338;2022-08-01T09:59:54;2.52;;;0.15;;
50064;SDS011;35951;47.848;-122.338;2022-08-01T10:02:27;4.00;;;0.10;;
50064;SDS011;35951;47.848;-122.338;2022-08-01T10:05:09;2.25;;;0.10;;
50064;SDS011;35951;47.848;-122.338;2022-08-01T10:07:54;2.58;;;0.10;;
50064;SDS011;35951;47.848;-122.338;2022-08-01T10:10:23;2.00;;;0.13;;
50064;SDS011;35951;47.848;-122.338;2022-08-01T10:12:51;2.90;;;0.30;;
50064;SDS011;35951;47.848;-122.338;2022-08-01T10:15:21;1.30;;;0.10;;
50064;SDS011;35951;47.848;-122.338;2022-08-01T10:17:53;0.50;;;0.10;;
50064;SDS011;35951;47.848;-122.338;2022-08-01T10:20:27;1.77;;;0.10;;
50064;SDS011;35951;47.848;-122.338;2022-08-01T10:22:55;0.50;;;0.10;;
50064;SDS011;35951;47.848;-122.338;2022-08-01T10:25:30;0.55;;;0.10;;
50064;SDS011;35951;47.848;-122.338;2022-08-01T10:28:01;0.40;;;0.10;;
50064;SDS011;35951;47.848;-122.338;2022-08-01T10:30:33;0.80;;;0.10;;
50064;SDS011;35951;47.848;-122.338;2022-08-01T10:33:01;0.23;;;0.00;;
50064;SDS011;35951;47.848;-122.338;2022-08-01T10:35:30;0.95;;;0.10;;
50064;SDS011;35951;47.848;-122.338;2022-08-01T10:37:58;0.47;;;0.10;;
50064;SDS011;35951;47.848;-122.338;2022-08-01T10:42:54;0.68;;;0.10;;
50064;SDS011;35951;47.848;-122.338;2022-08-01T10:45:24;0.42;;;0.10;;
50064;SDS011;35951;47.848;-122.338;2022-08-01T10:50:49;0.15;;;0.00;;
50064;SDS011;35951;47.848;-122.338;2022-08-01T10:53:20;1.57;;;0.20;;
50064;SDS011;35951;47.848;-122.338;2022-08-01T10:58:34;1.60;;;0.10;;
50064;SDS011;35951;47.848;-122.338;2022-08-01T11:03:59;1.65;;;0.10;;
50064;SDS011;35951;47.848;-122.338;2022-08-01T11:06:44;0.53;;;0.10;;
50064;SDS011;35951;47.848;-122.338;2022-08-01T11:09:41;0.98;;;0.10;;
50064;SDS011;35951;47.848;-122.338;2022-08-01T11:12:14;0.30;;;0.03;;
50064;SDS011;35951;47.848;-122.338;2022-08-01T11:17:43;1.32;;;0.10;;
50064;SDS011;35951;47.848;-122.338;2022-08-01T11:30:46;0.70;;;0.10;;
50064;SDS011;35951;47.848;-122.338;2022-08-01T11:38:49;0.45;;;0.10;;
50064;SDS011;35951;47.848;-122.338;2022-08-01T11:41:33;0.30;;;0.00;;
50064;SDS011;35951;47.848;-122.338;2022-08-01T11:46:52;0.62;;;0.10;;
50064;SDS011;35951;47.848;-122.338;2022-08-01T11:49:30;1.40;;;0.10;;
50064;SDS011;35951;47.848;-122.338;2022-08-01T11:52:09;4.80;;;0.10;;
50064;SDS011;35951;47.848;-122.338;2022-08-01T11:54:55;0.37;;;0.00;;
50064;SDS011;35951;47.848;-122.338;2022-08-01T11:57:29;0.55;;;0.10;;
50064;SDS011;35951;47.848;-122.338;2022-08-01T12:00:12;0.23;;;0.10;;
50064;SDS011;35951;47.848;-122.338;2022-08-01T12:02:43;1.12;;;0.10;;
50064;SDS011;35951;47.848;-122.338;2022-08-01T12:05:17;2.05;;;0.10;;
50064;SDS011;35951;47.848;-122.338;2022-08-01T12:07:47;0.40;;;0.05;;
50064;SDS011;35951;47.848;-122.338;2022-08-01T12:10:19;0.45;;;0.03;;
50064;SDS011;35951;47.848;-122.338;2022-08-01T12:15:21;2.90;;;0.10;;
50064;SDS011;35951;47.848;-122.338;2022-08-01T12:17:57;0.62;;;0.10;;
50064;SDS011;35951;47.848;-122.338;2022-08-01T12:20:33;0.33;;;0.10;;
50064;SDS011;35951;47.848;-122.338;2022-08-01T12:23:03;0.75;;;0.10;;
50064;SDS011;35951;47.848;-122.338;2022-08-01T12:25:34;0.30;;;0.10;;
50064;SDS011;35951;47.848;-122.338;2022-08-01T12:28:05;1.52;;;0.10;;
50064;SDS011;35951;47.848;-122.338;2022-08-01T12:30:35;0.08;;;0.00;;
50064;SDS011;35951;47.848;-122.338;2022-08-01T12:33:05;0.40;;;0.10;;
50064;SDS011;35951;47.848;-122.338;2022-08-01T12:35:36;1.57;;;0.00;;
50064;SDS011;35951;47.848;-122.338;2022-08-01T12:38:08;0.60;;;0.10;;
50064;SDS011;35951;47.848;-122.338;2022-08-01T12:40:51;0.68;;;0.10;;
50064;SDS011;35951;47.848;-122.338;2022-08-01T12:43:19;0.80;;;0.10;;
50064;SDS011;35951;47.848;-122.338;2022-08-01T12:45:50;0.30;;;0.10;;
50064;SDS011;35951;47.848;-122.338;2022-08-01T12:48:19;2.10;;;0.10;;
50064;SDS011;35951;47.848;-122.338;2022-08-01T12:50:47;1.80;;;0.10;;
50064;SDS011;35951;47.848;-122.338;2022-08-01T12:53:16;0.55;;;0.10;;
50064;SDS011;35951;47.848;-122.338;2022-08-01T12:55:45;1.27;;;0.20;;
50064;SDS011;35951;47.848;-122.338;2022-08-01T12:58:16;2.85;;;0.10;;
50064;SDS011;35951;47.848;-122.338;2022-08-01T13:03:14;0.95;;;0.10;;
50064;SDS011;35951;47.848;-122.338;2022-08-01T13:08:34;0.30;;;0.10;;
50064;SDS011;35951;47.848;-122.338;2022-08-01T13:11:02;1.52;;;0.10;;
50064;SDS011;35951;47.848;-122.338;2022-08-01T13:13:39;2.05;;;0.10;;
50064;SDS011;35951;47.848;-122.338;2022-08-01T13:16:09;1.57;;;0.10;;
50064;SDS011;35951;47.848;-122.338;2022-08-01T13:18:38;3.40;;;0.10;;
50064;SDS011;35951;47.848;-122.338;2022-08-01T13:21:07;1.15;;;0.05;;
50064;SDS011;35951;47.848;-122.338;2022-08-01T13:29:20;1.07;;;0.17;;
50064;SDS011;35951;47.848;-122.338;2022-08-01T13:31:50;1.70;;;0.10;;
50064;SDS011;35951;47.848;-122.338;2022-08-01T13:34:18;1.10;;;0.10;;
50064;SDS011;35951;47.848;-122.338;2022-08-01T13:36:57;2.10;;;0.10;;
50064;SDS011;35951;47.848;-122.338;2022-08-01T13:39:28;1.77;;;0.10;;
50064;SDS011;35951;47.848;-122.338;2022-08-01T13:42:10;0.30;;;0.00;;
50064;SDS011;35951;47.848;-122.338;2022-08-01T13:44:40;2.80;;;0.10;;
50064;SDS011;35951;47.848;-122.338;2022-08-01T13:47:10;1.90;;;0.10;;
50064;SDS011;35951;47.848;-122.338;2022-08-01T13:49:38;0.72;;;0.10;;
50064;SDS011;35951;47.848;-122.338;2022-08-01T13:52:07;0.88;;;0.10;;
50064;SDS011;35951;47.848;-122.338;2022-08-01T13:54:35;0.40;;;0.05;;
50064;SDS011;35951;47.848;-122.338;2022-08-01T13:57:03;4.47;;;0.10;;
50064;SDS011;35951;47.848;-122.338;2022-08-01T13:59:31;0.93;;;0.10;;
50064;SDS011;35951;47.848;-122.338;2022-08-01T14:01:58;3.40;;;0.10;;
50064;SDS011;35951;47.848;-122.338;2022-08-01T14:04:26;0.42;;;0.03;;
50064;SDS011;35951;47.848;-122.338;2022-08-01T14:06:53;0.37;;;0.10;;
50064;SDS011;35951;47.848;-122.338;2022-08-01T14:09:21;1.40;;;0.10;;
50064;SDS011;35951;47.848;-122.338;2022-08-01T14:11:49;2.10;;;0.00;;
50064;SDS011;35951;47.848;-122.338;2022-08-01T14:14:17;0.47;;;0.10;;
50064;SDS011;35951;47.848;-122.338;2022-08-01T14:16:44;1.98;;;0.10;;
50064;SDS011;35951;47.848;-122.338;2022-08-01T14:19:12;0.53;;;0.10;;
50064;SDS011;35951;47.848;-122.338;2022-08-01T14:21:41;1.85;;;0.10;;
50064;SDS011;35951;47.848;-122.338;2022-08-01T14:24:09;2.77;;;0.17;;
50064;SDS011;35951;47.848;-122.338;2022-08-01T14:26:37;3.02;;;0.10;;
50064;SDS011;35951;47.848;-122.338;2022-08-01T14:29:05;2.40;;;0.10;;
50064;SDS011;35951;47.848;-122.338;2022-08-01T14:31:32;1.60;;;0.10;;
50064;SDS011;35951;47.848;-122.338;2022-08-01T14:34:01;3.37;;;0.10;;
50064;SDS011;35951;47.848;-122.338;2022-08-01T14:36:29;0.40;;;0.10;;
50064;SDS011;35951;47.848;-122.338;2022-08-01T14:38:57;0.80;;;0.10;;
50064;SDS011;35951;47.848;-122.338;2022-08-01T14:41:25;2.30;;;0.10;;
50064;SDS011;35951;47.848;-122.338;2022-08-01T14:43:53;1.42;;;0.10;;
50064;SDS011;35951;47.848;-122.338;2022-08-01T14:46:21;0.60;;;0.10;;
50064;SDS011;35951;47.848;-122.338;2022-08-01T14:48:50;8.75;;;0.00;;
50064;SDS011;35951;47.848;-122.338;2022-08-01T14:51:18;0.60;;;0.10;;
50064;SDS011;35951;47.848;-122.338;2022-08-01T14:53:46;0.30;;;0.10;;
50064;SDS011;35951;47.848;-122.338;2022-08-01T14:56:14;0.20;;;0.05;;
50064;SDS011;35951;47.848;-122.338;2022-08-01T15:01:10;2.15;;;0.10;;
50064;SDS011;35951;47.848;-122.338;2022-08-01T15:03:38;0.85;;;0.10;;
50064;SDS011;35951;47.848;-122.338;2022-08-01T15:06:06;2.65;;;0.10;;
50064;SDS011;35951;47.848;-122.338;2022-08-01T15:08:35;1.02;;;0.20;;
50064;SDS011;35951;47.848;-122.338;2022-08-01T15:11:03;0.30;;;0.10;;
50064;SDS011;35951;47.848;-122.338;2022-08-01T15:13:31;0.93;;;0.10;;
50064;SDS011;35951;47.848;-122.338;2022-08-01T15:15:59;0.62;;;0.10;;
50064;SDS011;35951;47.848;-122.338;2022-08-01T15:18:27;1.35;;;0.10;;
50064;SDS011;35951;47.848;-122.338;2022-08-01T15:20:55;0.13;;;0.10;;
50064;SDS011;35951;47.848;-122.338;2022-08-01T15:23:23;0.45;;;0.05;;
50064;SDS011;35951;47.848;-122.338;2022-08-01T15:25:51;0.57;;;0.10;;
50064;SDS011;35951;47.848;-122.338;2022-08-01T15:28:18;1.27;;;0.05;;
50064;SDS011;35951;47.848;-122.338;2022-08-01T15:30:46;0.40;;;0.10;;
50064;SDS011;35951;47.848;-122.338;2022-08-01T15:33:13;4.78;;;0.10;;
50064;SDS011;35951;47.848;-122.338;2022-08-01T15:35:42;0.75;;;0.10;;
50064;SDS011;35951;47.848;-122.338;2022-08-01T15:38:09;2.17;;;0.10;;
50064;SDS011;35951;47.848;-122.338;2022-08-01T15:40:37;0.90;;;0.10;;
50064;SDS011;35951;47.848;-122.338;2022-08-01T15:43:04;0.50;;;0.10;;
50064;SDS011;35951;47.848;-122.338;2022-08-01T15:45:32;0.47;;;0.10;;
50064;SDS011;35951;47.848;-122.338;2022-08-01T15:48:00;0.15;;;0.00;;
50064;SDS011;35951;47.848;-122.338;2022-08-01T15:50:28;3.83;;;0.10;;
50064;SDS011;35951;47.848;-122.338;2022-08-01T15:52:56;0.30;;;0.00;;
50064;SDS011;35951;47.848;-122.338;2022-08-01T15:55:24;0.20;;;0.00;;
50064;SDS011;35951;47.848;-122.338;2022-08-01T15:57:52;3.15;;;0.10;;
50064;SDS011;35951;47.848;-122.338;2022-08-01T16:00:20;0.87;;;0.00;;
50064;SDS011;35951;47.848;-122.338;2022-08-01T16:05:16;0.25;;;0.00;;
50064;SDS011;35951;47.848;-122.338;2022-08-01T16:07:44;0.23;;;0.00;;
50064;SDS011;35951;47.848;-122.338;2022-08-01T16:10:12;0.10;;;0.00;;